Time;durP1;ratioP1;P1;durP2;ratioP2;P2;SDS_P1;SDS_P2;PMS_P1;PMS_P2;Temp;Humidity;BMP_temperature;BMP_pressure;BME280_temperature;BME280_humidity;BME280_pressure;Samples;Min_cycle;Max_cycle;Signal;HPM_P1;HPM_P2
2022/03/19 00:01:13;;;;;;;23.00;3.40;;;3.10;99.90;;;;;;5029067;28;20084;-88
2022/03/19 00:03:40;;;;;;;15.93;2.45;;;3.10;99.90;;;;;;5008530;28;20457;-88
2022/03/19 00:06:06;;;;;;;16.75;2.78;;;3.80;99.90;;;;;;5030246;28;20049;-89
2022/03/19 00:08:32;;;;;;;16.60;2.92;;;3.00;99.90;;;;;;5022406;28;20060;-89
2022/03/19 00:11:00;;;;;;;15.05;2.38;;;3.00;99.90;;;;;;5014011;28;20489;-88
2022/03/19 00:13:26;;;;;;;16.92;2.70;;;3.00;99.90;;;;;;5022254;28;20374;-88
2022/03/19 00:15:52;;;;;;;22.02;3.40;;;3.00;99.90;;;;;;5013668;28;20096;-88
2022/03/19 00:18:18;;;;;;;15.60;2.83;;;3.00;99.90;;;;;;5013469;28;20111;-87
2022/03/19 00:20:43;;;;;;;19.75;2.70;;;3.00;99.90;;;;;;5008372;28;20088;-88
2022/03/19 00:23:10;;;;;;;23.05;3.13;;;3.00;99.90;;;;;;5013182;28;20049;-87
2022/03/19 00:25:35;;;;;;;15.02;2.72;;;3.00;99.90;;;;;;5007364;28;20132;-87
2022/03/19 00:28:01;;;;;;;16.77;2.63;;;3.00;99.90;;;;;;5012667;28;20128;-88
2022/03/19 00:30:27;;;;;;;19.35;3.50;;;3.50;99.90;;;;;;5005868;28;20160;-88
2022/03/19 00:32:53;;;;;;;16.42;2.75;;;2.90;99.90;;;;;;5029404;28;20446;-87
2022/03/19 00:35:19;;;;;;;16.10;3.47;;;2.90;99.90;;;;;;5029505;28;20115;-87
2022/03/19 00:37:46;;;;;;;18.15;3.10;;;2.90;99.90;;;;;;5012281;28;20041;-88
2022/03/19 00:40:13;;;;;;;18.02;3.00;;;2.80;99.90;;;;;;4996618;28;20049;-88
2022/03/19 00:42:39;;;;;;;24.27;3.47;;;2.80;99.90;;;;;;4996215;28;20258;-87
2022/03/19 00:45:06;;;;;;;18.80;3.30;;;2.80;99.90;;;;;;5012227;28;20121;-88
2022/03/19 00:47:31;;;;;;;20.60;2.70;;;2.80;99.90;;;;;;4996017;28;20046;-87
2022/03/19 00:49:57;;;;;;;20.23;2.53;;;2.70;99.90;;;;;;4995844;28;20104;-88
2022/03/19 00:52:23;;;;;;;13.02;2.53;;;2.70;99.90;;;;;;5012002;28;20045;-88
2022/03/19 00:54:48;;;;;;;18.90;2.70;;;2.70;99.90;;;;;;4996474;28;20045;-86
2022/03/19 00:57:14;;;;;;;17.15;3.33;;;2.60;99.90;;;;;;4994565;28;20123;-88
2022/03/19 00:59:40;;;;;;;19.38;3.65;;;2.60;99.90;;;;;;4996553;28;20045;-87
2022/03/19 01:02:05;;;;;;;20.88;3.08;;;2.60;99.90;;;;;;4996020;28;20068;-88
2022/03/19 01:04:34;;;;;;;21.38;3.17;;;2.60;99.90;;;;;;4972023;28;1189697;-88
2022/03/19 01:07:00;;;;;;;20.92;3.92;;;3.00;99.90;;;;;;5013214;28;20057;-87
2022/03/19 01:09:25;;;;;;;21.55;3.00;;;2.60;99.90;;;;;;4997906;28;20129;-87
2022/03/19 01:11:52;;;;;;;19.20;3.03;;;2.60;99.90;;;;;;5012841;28;20060;-87
2022/03/19 01:14:18;;;;;;;21.88;3.55;;;2.60;99.90;;;;;;4996211;28;20060;-87
2022/03/19 01:16:43;;;;;;;18.35;3.17;;;2.70;99.90;;;;;;4997421;28;20045;-88
2022/03/19 01:19:09;;;;;;;26.58;3.38;;;2.60;99.90;;;;;;4996477;28;20053;-88
2022/03/19 01:21:35;;;;;;;21.50;3.22;;;2.60;99.90;;;;;;5014217;28;20092;-88
2022/03/19 01:24:03;;;;;;;20.50;3.58;;;2.50;99.90;;;;;;4997603;28;20583;-88
2022/03/19 01:26:28;;;;;;;18.70;3.45;;;3.20;99.90;;;;;;4997062;28;20046;-88
2022/03/19 01:28:54;;;;;;;24.10;3.85;;;2.50;99.90;;;;;;5012920;28;20412;-87
2022/03/19 01:31:25;;;;;;;22.63;3.67;;;2.50;99.90;;;;;;5012836;28;20064;-88
2022/03/19 01:33:52;;;;;;;21.98;3.47;;;2.50;99.90;;;;;;5025374;28;20053;-88
2022/03/19 01:36:18;;;;;;;20.33;3.80;;;2.50;99.90;;;;;;5028775;28;20135;-87
2022/03/19 01:38:44;;;;;;;20.02;3.88;;;2.50;99.90;;;;;;5024452;28;20101;-87
2022/03/19 01:41:10;;;;;;;18.33;3.70;;;2.50;99.90;;;;;;5012204;28;20057;-87
2022/03/19 01:43:37;;;;;;;27.10;3.67;;;2.50;99.90;;;;;;5006768;28;20041;-87
2022/03/19 01:46:03;;;;;;;14.48;3.13;;;2.50;99.90;;;;;;5013085;28;20106;-88
2022/03/19 01:48:29;;;;;;;26.83;4.30;;;2.50;99.90;;;;;;5004748;28;20042;-87
2022/03/19 01:50:54;;;;;;;15.02;2.75;;;2.50;99.90;;;;;;5029962;28;20103;-88
2022/03/19 01:53:20;;;;;;;27.17;4.32;;;2.50;99.90;;;;;;5028569;28;20087;-89
2022/03/19 01:55:46;;;;;;;17.60;3.45;;;2.60;99.90;;;;;;5023845;28;20403;-87
2022/03/19 01:58:11;;;;;;;27.15;4.43;;;2.60;99.90;;;;;;5012304;28;20489;-88
2022/03/19 02:00:38;;;;;;;21.50;3.80;;;2.60;99.90;;;;;;5012305;28;20052;-88
2022/03/19 02:03:06;;;;;;;20.70;3.33;;;2.60;99.90;;;;;;5029699;28;20061;-86
2022/03/19 02:05:32;;;;;;;20.30;3.78;;;2.60;99.90;;;;;;5031915;28;20045;-88
2022/03/19 02:07:57;;;;;;;20.98;3.83;;;2.60;99.90;;;;;;5015472;28;20056;-88
2022/03/19 02:10:23;;;;;;;26.55;4.47;;;2.60;99.90;;;;;;5032452;28;20449;-88
2022/03/19 02:12:52;;;;;;;20.70;4.32;;;2.60;99.90;;;;;;5015490;28;20108;-88
2022/03/19 02:15:18;;;;;;;27.02;4.43;;;2.60;99.90;;;;;;5031742;28;20049;-89
2022/03/19 02:17:44;;;;;;;26.88;4.30;;;2.60;99.90;;;;;;5032017;28;20106;-88
2022/03/19 02:20:11;;;;;;;22.50;4.10;;;2.60;99.90;;;;;;5015208;28;20499;-90
2022/03/19 02:22:37;;;;;;;21.42;4.45;;;2.50;99.90;;;;;;5032160;28;20055;-87
2022/03/19 02:27:48;;;;;;;17.67;4.38;;;2.70;99.90;;;;;;5031562;28;20060;-88
2022/03/19 02:30:15;;;;;;;21.70;3.95;;;2.80;99.90;;;;;;5031116;28;20040;-88
2022/03/19 02:32:43;;;;;;;23.00;4.80;;;2.80;99.90;;;;;;5032090;28;20048;-88
2022/03/19 02:35:10;;;;;;;25.92;5.68;;;2.90;99.90;;;;;;5031866;28;20045;-89
2022/03/19 02:37:40;;;;;;;18.05;4.53;;;2.90;99.90;;;;;;5014972;28;20098;-88
2022/03/19 02:40:08;;;;;;;22.48;4.80;;;2.90;99.90;;;;;;5032064;28;20052;-88
2022/03/19 02:42:34;;;;;;;22.90;4.70;;;2.90;99.90;;;;;;5013946;28;20052;-87
2022/03/19 02:44:59;;;;;;;22.50;4.15;;;3.00;99.90;;;;;;5031978;28;20060;-87
2022/03/19 02:47:25;;;;;;;20.63;4.30;;;2.90;99.90;;;;;;5030466;28;20049;-89
2022/03/19 02:49:50;;;;;;;21.73;4.95;;;3.00;99.90;;;;;;4995710;28;20046;-88
2022/03/19 02:52:20;;;;;;;25.83;5.18;;;3.00;99.90;;;;;;5012126;28;20140;-88
2022/03/19 02:54:46;;;;;;;23.23;5.15;;;3.00;99.90;;;;;;5012587;28;20164;-88
2022/03/19 02:57:12;;;;;;;25.52;5.38;;;3.10;99.90;;;;;;5010095;28;20132;-88
2022/03/19 02:59:38;;;;;;;19.80;4.72;;;3.80;99.90;;;;;;5011554;28;20390;-88
2022/03/19 03:02:05;;;;;;;23.48;5.30;;;3.10;99.90;;;;;;5011412;28;20060;-88
2022/03/19 03:04:32;;;;;;;18.90;4.95;;;3.20;99.90;;;;;;5010667;28;20062;-87
2022/03/19 03:07:01;;;;;;;17.60;5.20;;;3.10;99.90;;;;;;5011796;28;20099;-88
2022/03/19 03:09:29;;;;;;;20.08;5.18;;;3.20;99.90;;;;;;4994870;28;20045;-87
2022/03/19 03:11:55;;;;;;;20.20;5.30;;;3.20;99.90;;;;;;4994818;28;20580;-88
2022/03/19 03:14:21;;;;;;;26.88;6.32;;;3.20;99.90;;;;;;5010717;28;20528;-87
2022/03/19 03:16:48;;;;;;;22.10;4.82;;;3.20;99.90;;;;;;5011645;28;20045;-88
2022/03/19 03:19:15;;;;;;;21.95;5.68;;;3.20;99.90;;;;;;5010956;28;20654;-87
2022/03/19 03:21:41;;;;;;;28.08;5.15;;;3.10;99.90;;;;;;4994874;28;20179;-88
2022/03/19 03:24:09;;;;;;;29.33;5.60;;;3.10;99.90;;;;;;5011428;28;20085;-87
2022/03/19 03:26:35;;;;;;;37.97;6.45;;;3.10;99.90;;;;;;5010240;28;20128;-87
2022/03/19 03:29:00;;;;;;;17.15;5.30;;;3.00;99.90;;;;;;4994403;28;20072;-88
2022/03/19 03:31:26;;;;;;;21.40;6.15;;;2.90;99.90;;;;;;5010610;28;20127;-88
2022/03/19 03:33:53;;;;;;;34.53;6.40;;;2.80;99.90;;;;;;5009707;28;20052;-87
2022/03/19 03:36:19;;;;;;;25.45;6.57;;;2.80;99.90;;;;;;4994497;28;20107;-86
2022/03/19 03:38:45;;;;;;;30.80;6.97;;;2.70;99.90;;;;;;5010500;28;20489;-87
2022/03/19 03:41:10;;;;;;;24.88;5.63;;;2.70;99.90;;;;;;5009474;28;20044;-87
2022/03/19 03:43:36;;;;;;;21.13;6.18;;;2.60;99.90;;;;;;5010734;28;20505;-87
2022/03/19 03:46:02;;;;;;;23.55;7.13;;;2.60;99.90;;;;;;4993263;28;20121;-87
2022/03/19 03:48:28;;;;;;;22.67;6.97;;;2.50;99.90;;;;;;5011016;28;20057;-87
2022/03/19 03:50:56;;;;;;;23.08;6.40;;;2.40;99.90;;;;;;5028528;28;20045;-87
2022/03/19 03:53:25;;;;;;;27.80;7.25;;;2.40;99.90;;;;;;5009973;28;20052;-86
2022/03/19 03:55:51;;;;;;;24.25;6.05;;;2.30;99.90;;;;;;4993983;28;20046;-86
2022/03/19 03:58:17;;;;;;;30.98;7.05;;;2.20;99.90;;;;;;5010104;28;20034;-87
2022/03/19 04:00:43;;;;;;;30.38;7.85;;;2.20;99.90;;;;;;5004691;28;20160;-87
2022/03/19 04:03:09;;;;;;;31.88;8.52;;;2.20;99.90;;;;;;5009219;28;20140;-87
2022/03/19 04:05:35;;;;;;;35.15;8.43;;;2.20;99.90;;;;;;5020886;28;20125;-87
2022/03/19 04:08:03;;;;;;;28.27;8.48;;;2.20;99.90;;;;;;5025921;28;20042;-87
2022/03/19 04:10:30;;;;;;;26.13;7.57;;;2.20;99.90;;;;;;5003376;28;20045;-86
2022/03/19 04:12:55;;;;;;;27.50;8.40;;;2.20;99.90;;;;;;5026238;28;20056;-87
2022/03/19 04:15:21;;;;;;;28.08;9.52;;;2.30;99.90;;;;;;5025854;28;20042;-87
2022/03/19 04:17:47;;;;;;;32.67;9.85;;;2.40;99.90;;;;;;5022277;28;20057;-88
2022/03/19 04:20:13;;;;;;;27.58;10.02;;;2.50;99.90;;;;;;5026960;28;20072;-89
2022/03/19 04:22:42;;;;;;;32.53;9.38;;;2.60;99.90;;;;;;5021285;28;20324;-89
2022/03/19 04:25:10;;;;;;;31.63;9.57;;;2.60;99.90;;;;;;5027047;28;20042;-90
2022/03/19 04:27:36;;;;;;;25.98;9.35;;;2.70;99.90;;;;;;5004959;28;20464;-89
2022/03/19 04:30:02;;;;;;;36.35;9.43;;;2.80;99.90;;;;;;5026588;28;20050;-88
2022/03/19 04:32:28;;;;;;;38.97;10.45;;;2.70;99.90;;;;;;5020394;28;20515;-89
2022/03/19 04:34:53;;;;;;;33.08;10.23;;;2.80;99.90;;;;;;5011729;28;20124;-88
2022/03/19 04:37:19;;;;;;;32.05;9.77;;;2.80;99.90;;;;;;5009952;28;20049;-88
2022/03/19 04:39:45;;;;;;;28.50;9.63;;;2.80;99.90;;;;;;5022989;28;20200;-88
2022/03/19 04:42:10;;;;;;;33.42;10.50;;;2.80;99.90;;;;;;5026322;28;20056;-89
2022/03/19 04:44:36;;;;;;;24.98;9.57;;;2.80;99.90;;;;;;5007633;28;20045;-87
2022/03/19 04:47:02;;;;;;;22.95;9.52;;;2.80;99.90;;;;;;5031869;28;20045;-90
2022/03/19 04:49:28;;;;;;;37.72;9.85;;;2.80;99.90;;;;;;5006776;28;20060;-90
2022/03/19 04:51:53;;;;;;;27.73;9.88;;;2.80;99.90;;;;;;5015619;28;20037;-89
2022/03/19 04:54:20;;;;;;;26.83;9.38;;;2.80;99.90;;;;;;5015136;28;20460;-88
2022/03/19 04:56:46;;;;;;;28.52;8.80;;;2.80;99.90;;;;;;5009555;28;20485;-89
2022/03/19 04:59:14;;;;;;;33.60;9.65;;;2.80;99.90;;;;;;5014164;28;20044;-90
2022/03/19 05:01:39;;;;;;;34.25;9.20;;;3.60;99.90;;;;;;5009650;28;20081;-89
2022/03/19 05:04:06;;;;;;;28.50;10.48;;;2.80;99.90;;;;;;5030664;28;20088;-90
2022/03/19 05:06:32;;;;;;;35.17;9.25;;;2.80;99.90;;;;;;5024254;28;20103;-90
2022/03/19 05:11:42;;;;;;;28.85;9.05;;;2.80;99.90;;;;;;5025102;28;20095;-90
2022/03/19 05:14:09;;;;;;;30.75;9.23;;;3.40;99.90;;;;;;5013934;28;20073;-91
2022/03/19 05:16:35;;;;;;;30.10;10.95;;;2.80;99.90;;;;;;5008505;28;20045;-88
2022/03/19 05:19:00;;;;;;;26.08;10.10;;;2.80;99.90;;;;;;5030252;28;20050;-89
2022/03/19 05:21:27;;;;;;;26.40;9.75;;;2.80;99.90;;;;;;5023096;28;20049;-88
2022/03/19 05:23:53;;;;;;;26.25;9.57;;;2.70;99.90;;;;;;5014337;28;20040;-88
2022/03/19 05:26:19;;;;;;;23.20;10.80;;;2.70;99.90;;;;;;5024370;28;20049;-89
2022/03/19 05:28:45;;;;;;;28.58;10.60;;;2.60;99.90;;;;;;5013905;28;20037;-88
2022/03/19 05:31:10;;;;;;;26.20;10.40;;;2.60;99.90;;;;;;5014609;28;20136;-87
2022/03/19 05:36:22;;;;;;;34.75;11.57;;;2.60;99.90;;;;;;5013464;28;20102;-88
2022/03/19 05:38:48;;;;;;;34.13;11.55;;;3.30;99.90;;;;;;5013825;28;20045;-89
2022/03/19 05:41:26;;;;;;;35.75;12.57;;;3.40;99.90;;;;;;4997059;28;20445;-90
2022/03/19 05:43:51;;;;;;;29.33;12.23;;;2.60;99.90;;;;;;5013805;28;20103;-89
2022/03/19 05:46:17;;;;;;;31.35;11.93;;;2.70;99.90;;;;;;5013469;28;20523;-89
2022/03/19 05:48:57;;;;;;;28.42;11.70;;;2.70;99.90;;;;;;4997814;28;20570;-90
2022/03/19 05:51:23;;;;;;;24.73;10.98;;;2.80;99.90;;;;;;5013871;28;20057;-91
2022/03/19 05:53:48;;;;;;;27.35;11.70;;;2.70;99.90;;;;;;5013180;28;20094;-89
2022/03/19 05:56:26;;;;;;;33.47;10.88;;;2.80;99.90;;;;;;5011971;28;20147;-90
2022/03/19 05:59:10;;;;;;;27.08;11.98;;;2.60;99.90;;;;;;4997438;28;20224;-90
2022/03/19 06:01:36;;;;;;;32.83;11.75;;;2.80;99.90;;;;;;5013083;28;20052;-90
2022/03/19 06:04:16;;;;;;;26.52;12.05;;;3.10;99.90;;;;;;5013635;28;20053;-91
2022/03/19 06:06:43;;;;;;;32.20;12.77;;;3.10;99.90;;;;;;4996973;28;20049;-92
2022/03/19 06:09:08;;;;;;;34.05;12.73;;;3.00;99.90;;;;;;5014012;28;20321;-92
2022/03/19 06:11:34;;;;;;;40.53;12.00;;;4.10;99.90;;;;;;4998961;28;20495;-90
2022/03/19 06:14:09;;;;;;;31.50;11.68;;;3.80;99.90;;;;;;4996835;28;20073;-92
2022/03/19 06:16:34;;;;;;;31.45;11.48;;;3.10;99.90;;;;;;4997532;28;20095;-90
2022/03/19 06:19:00;;;;;;;31.15;11.13;;;2.50;99.90;;;;;;4996956;28;20041;-91
2022/03/19 06:21:35;;;;;;;29.90;11.55;;;3.10;99.90;;;;;;4996640;28;20053;-89
2022/03/19 06:24:05;;;;;;;29.55;11.85;;;3.20;99.90;;;;;;4996707;28;20124;-91
2022/03/19 06:26:37;;;;;;;28.65;10.60;;;3.30;99.90;;;;;;4996701;28;20049;-91
2022/03/19 06:29:03;;;;;;;26.95;10.68;;;3.30;99.90;;;;;;4996235;28;20037;-90
2022/03/19 06:31:34;;;;;;;28.48;11.10;;;3.40;99.90;;;;;;4996467;28;20056;-91
2022/03/19 06:34:00;;;;;;;31.75;10.50;;;3.60;99.90;;;;;;4994185;28;20136;-91
2022/03/19 06:39:12;;;;;;;27.17;8.98;;;3.20;99.90;;;;;;5011836;28;20051;-91
2022/03/19 06:41:38;;;;;;;31.23;8.27;;;3.60;99.90;;;;;;4993377;28;20037;-91
2022/03/19 06:44:04;;;;;;;28.88;8.95;;;3.20;99.90;;;;;;4996916;28;20044;-91
2022/03/19 06:46:31;;;;;;;25.25;8.95;;;4.70;99.90;;;;;;4996265;28;20057;-90
2022/03/19 06:49:02;;;;;;;27.45;9.32;;;3.70;99.90;;;;;;4994803;28;20056;-91
2022/03/19 06:51:28;;;;;;;31.15;9.82;;;3.20;99.90;;;;;;4992809;28;20042;-91
2022/03/19 06:53:54;;;;;;;25.55;8.15;;;4.80;99.90;;;;;;4989167;28;20048;-92
2022/03/19 06:56:22;;;;;;;21.95;8.98;;;3.60;99.90;;;;;;4992243;28;20049;-89
2022/03/19 06:58:48;;;;;;;26.55;8.55;;;5.10;99.90;;;;;;4996439;28;20046;-91
2022/03/19 07:01:15;;;;;;;25.55;8.93;;;5.00;99.90;;;;;;4996086;28;20175;-91
2022/03/19 07:03:47;;;;;;;26.08;8.95;;;4.10;99.90;;;;;;4995488;28;20049;-91
2022/03/19 07:06:15;;;;;;;27.92;8.70;;;3.50;99.90;;;;;;4995579;28;20103;-92
2022/03/19 07:08:41;;;;;;;23.45;8.43;;;4.20;99.90;;;;;;4996509;28;20049;-90
2022/03/19 07:11:16;;;;;;;27.52;7.60;;;4.90;99.90;;;;;;4995617;28;20473;-90
2022/03/19 07:13:42;;;;;;;25.30;8.15;;;4.60;99.90;;;;;;4994215;28;20042;-90
2022/03/19 07:16:17;;;;;;;21.13;7.68;;;4.00;99.90;;;;;;4995878;28;20064;-90
2022/03/19 07:18:43;;;;;;;23.85;8.13;;;4.50;99.90;;;;;;4996044;28;20470;-91
2022/03/19 07:21:09;;;;;;;22.70;8.13;;;4.50;99.90;;;;;;4995993;28;20084;-91
2022/03/19 07:23:49;;;;;;;25.85;7.30;;;6.00;99.90;;;;;;5012235;28;20038;-89
2022/03/19 07:26:15;;;;;;;24.38;8.27;;;4.70;99.90;;;;;;4992309;28;20125;-89
2022/03/19 07:28:41;;;;;;;16.67;7.13;;;5.30;99.90;;;;;;4976502;28;20125;-90
2022/03/19 07:31:07;;;;;;;23.92;7.93;;;5.60;99.90;;;;;;4975281;28;20049;-89
2022/03/19 07:33:39;;;;;;;23.27;7.15;;;4.90;99.90;;;;;;4977198;28;20049;-90
2022/03/19 07:36:05;;;;;;;21.63;7.18;;;5.40;99.90;;;;;;4991514;28;20046;-89
2022/03/19 07:38:40;;;;;;;28.33;7.95;;;5.00;99.90;;;;;;4991920;28;20062;-89
2022/03/19 07:43:53;;;;;;;18.20;6.07;;;6.30;99.90;;;;;;4992270;28;20060;-89
2022/03/19 07:46:27;;;;;;;21.10;7.45;;;5.20;99.90;;;;;;4975524;28;20076;-90
2022/03/19 07:48:52;;;;;;;21.88;6.90;;;5.20;99.90;;;;;;4975856;28;20038;-92
2022/03/19 07:51:18;;;;;;;22.00;6.55;;;5.30;99.90;;;;;;4975111;28;20052;-92
2022/03/19 07:53:45;;;;;;;25.00;5.95;;;6.40;99.90;;;;;;4976337;28;20042;-87
2022/03/19 07:56:11;;;;;;;25.08;7.10;;;5.50;99.90;;;;;;5001242;28;20103;-82
2022/03/19 07:58:36;;;;;;;21.38;6.20;;;6.60;99.90;;;;;;5011474;28;20386;-93
2022/03/19 08:01:05;;;;;;;23.70;6.50;;;6.30;99.90;;;;;;4993943;28;20578;-94
2022/03/19 08:03:31;;;;;;;19.75;6.82;;;6.40;99.90;;;;;;4995072;28;20053;-96
2022/03/19 08:05:57;;;;;;;20.30;6.40;;;5.60;99.90;;;;;;4996922;28;20468;-87
2022/03/19 08:08:25;;;;;;;20.08;6.15;;;5.60;99.90;;;;;;5013111;28;20045;-92
2022/03/19 08:10:51;;;;;;;19.70;6.35;;;6.00;99.90;;;;;;5010878;28;20077;-92
2022/03/19 08:13:17;;;;;;;25.05;6.78;;;5.90;99.90;;;;;;5010477;28;20079;-92
2022/03/19 08:15:49;;;;;;;20.45;6.03;;;6.00;99.90;;;;;;5001390;28;20072;-93
2022/03/19 08:18:17;;;;;;;24.52;6.20;;;6.00;99.90;;;;;;4984159;28;20053;-94
2022/03/19 08:20:49;;;;;;;29.38;7.10;;;7.10;99.90;;;;;;4980068;28;20046;-92
2022/03/19 08:23:15;;;;;;;18.15;5.43;;;6.40;99.90;;;;;;4998461;28;20107;-90
2022/03/19 08:25:44;;;;;;;15.95;5.70;;;6.20;99.90;;;;;;5016098;28;20064;-91
2022/03/19 08:28:10;;;;;;;22.25;5.60;;;7.20;99.90;;;;;;4998218;28;20049;-94
2022/03/19 08:30:42;;;;;;;20.38;5.95;;;7.10;99.90;;;;;;5015902;28;20045;-92
2022/03/19 08:33:26;;;;;;;23.02;4.97;;;6.30;99.90;;;;;;4993956;28;20052;-94
2022/03/19 08:35:55;;;;;;;15.45;5.32;;;6.90;99.90;;;;;;4993085;28;20084;-92
2022/03/19 08:41:24;;;;;;;22.85;5.60;;;7.20;99.90;;;;;;5013428;28;20060;-92
2022/03/19 08:43:50;;;;;;;24.23;5.97;;;6.90;99.90;;;;;;4995821;28;20045;-92
2022/03/19 08:46:16;;;;;;;25.52;4.90;;;6.90;99.90;;;;;;4997739;28;20030;-90
2022/03/19 08:48:41;;;;;;;19.85;4.95;;;7.00;99.90;;;;;;4998035;28;20059;-92
2022/03/19 08:53:51;;;;;;;20.83;4.80;;;7.10;99.90;;;;;;5014595;28;20057;-91
2022/03/19 08:56:17;;;;;;;21.27;5.30;;;7.20;99.90;;;;;;5013458;28;20048;-91
2022/03/19 08:58:43;;;;;;;24.27;5.75;;;7.70;99.90;;;;;;5014925;28;20103;-89
2022/03/19 09:01:09;;;;;;;21.13;5.40;;;7.30;99.90;;;;;;5013837;28;20448;-90
2022/03/19 09:03:35;;;;;;;20.85;5.28;;;7.40;99.90;;;;;;4997783;28;20096;-83
2022/03/19 09:06:00;;;;;;;18.95;5.15;;;8.00;99.90;;;;;;4996092;28;20052;-91
2022/03/19 09:08:26;;;;;;;17.42;4.70;;;7.60;99.90;;;;;;5014492;28;20497;-90
2022/03/19 09:10:53;;;;;;;21.65;4.65;;;7.60;99.90;;;;;;5013852;28;20505;-90
2022/03/19 09:13:18;;;;;;;17.38;4.82;;;8.30;99.90;;;;;;4997991;28;20076;-89
2022/03/19 09:15:44;;;;;;;12.52;4.43;;;7.80;99.90;;;;;;4998902;28;20041;-89
2022/03/19 09:18:10;;;;;;;20.33;4.38;;;8.40;99.90;;;;;;5013657;28;20121;-90
2022/03/19 09:20:36;;;;;;;15.93;3.85;;;7.80;99.90;;;;;;4998450;28;20056;-90
2022/03/19 09:23:03;;;;;;;15.30;3.65;;;7.90;99.90;;;;;;4998331;28;20102;-90
2022/03/19 09:25:29;;;;;;;16.35;4.18;;;9.00;99.90;;;;;;5012962;28;20493;-90
2022/03/19 09:27:55;;;;;;;15.55;3.92;;;8.10;99.90;;;;;;4997680;28;20053;-90
2022/03/19 09:30:20;;;;;;;22.58;5.18;;;8.70;99.90;;;;;;4997841;28;20045;-90
2022/03/19 09:32:46;;;;;;;16.58;4.30;;;8.20;99.90;;;;;;4997802;28;20136;-90
2022/03/19 09:35:12;;;;;;;16.23;4.45;;;8.90;99.90;;;;;;4998174;28;20108;-92
2022/03/19 09:37:38;;;;;;;21.13;4.57;;;8.60;99.90;;;;;;5013677;28;20408;-90
2022/03/19 09:40:04;;;;;;;17.15;3.70;;;8.30;99.90;;;;;;4997983;28;20037;-89
2022/03/19 09:42:32;;;;;;;16.27;4.35;;;8.30;99.90;;;;;;5013365;28;20053;-89
2022/03/19 09:44:59;;;;;;;17.00;3.97;;;9.10;99.90;;;;;;5014168;28;20445;-90
2022/03/19 09:47:26;;;;;;;24.83;4.80;;;9.00;99.90;;;;;;4997549;28;20072;-89
2022/03/19 09:49:52;;;;;;;25.08;4.88;;;9.50;99.90;;;;;;5014781;28;20087;-90
2022/03/19 09:52:20;;;;;;;14.93;4.30;;;8.60;99.90;;;;;;5013274;28;20045;-90
2022/03/19 09:54:46;;;;;;;17.85;4.53;;;8.70;99.90;;;;;;4997965;28;20049;-90
2022/03/19 09:57:13;;;;;;;14.77;3.90;;;8.70;99.90;;;;;;4996510;28;20053;-90
2022/03/19 09:59:38;;;;;;;20.38;4.70;;;8.90;99.90;;;;;;5013331;28;20065;-90
2022/03/19 10:02:05;;;;;;;24.67;4.70;;;9.30;99.90;;;;;;5013539;28;20041;-91
2022/03/19 10:04:31;;;;;;;14.77;3.92;;;9.00;99.90;;;;;;4997482;28;20104;-92
2022/03/19 10:09:44;;;;;;;19.98;4.43;;;9.00;99.90;;;;;;5013936;28;20053;-90
2022/03/19 10:12:16;;;;;;;15.57;4.20;;;9.10;99.90;;;;;;5012879;28;20045;-90
2022/03/19 10:14:47;;;;;;;22.17;5.25;;;9.10;99.90;;;;;;5013117;28;20046;-89
2022/03/19 10:17:25;;;;;;;20.17;4.30;;;9.20;99.90;;;;;;4996103;28;20503;-90
2022/03/19 10:19:51;;;;;;;17.02;3.95;;;9.20;99.90;;;;;;4996208;28;20041;-90
2022/03/19 10:22:24;;;;;;;18.52;3.42;;;9.30;99.90;;;;;;5013064;28;20104;-90
2022/03/19 10:24:56;;;;;;;15.65;3.28;;;9.30;99.90;;;;;;4996961;28;20037;-90
2022/03/19 10:27:22;;;;;;;16.15;3.33;;;9.40;99.90;;;;;;5011834;28;20132;-90
2022/03/19 10:30:09;;;;;;;14.40;3.40;;;9.50;99.90;;;;;;5013247;28;20152;-90
2022/03/19 10:32:36;;;;;;;14.30;3.60;;;9.60;99.90;;;;;;4997170;28;20132;-90
2022/03/19 10:35:03;;;;;;;10.63;2.15;;;9.70;99.90;;;;;;4996848;28;20128;-90
2022/03/19 10:37:34;;;;;;;13.68;2.95;;;9.60;99.90;;;;;;4996248;28;20045;-90
2022/03/19 10:39:59;;;;;;;14.07;3.30;;;9.80;99.90;;;;;;4996641;28;20060;-89
2022/03/19 10:42:25;;;;;;;9.05;2.38;;;9.70;99.90;;;;;;5011198;28;20488;-91
2022/03/19 10:44:52;;;;;;;12.55;2.38;;;9.90;99.90;;;;;;4996652;28;20042;-90
2022/03/19 10:47:22;;;;;;;11.45;2.97;;;9.90;99.90;;;;;;5012305;28;20042;-90
2022/03/19 10:49:47;;;;;;;12.48;2.92;;;10.40;99.90;;;;;;4996090;28;20073;-90
2022/03/19 10:52:31;;;;;;;14.77;3.03;;;10.10;99.90;;;;;;4995829;28;20081;-89
2022/03/19 10:54:58;;;;;;;;;;;10.10;99.90;;;;;;5012620;28;20120;-89
2022/03/19 10:57:23;;;;;;;12.90;3.22;;;10.10;99.90;;;;;;4994830;28;20328;-89
2022/03/19 11:00:03;;;;;;;14.82;3.05;;;10.90;99.90;;;;;;4996861;28;20057;-89
2022/03/19 11:02:31;;;;;;;11.70;2.58;;;10.20;99.90;;;;;;4996115;28;20575;-90
2022/03/19 11:04:59;;;;;;;8.82;2.28;;;10.30;99.90;;;;;;4995479;28;20405;-88
2022/03/19 11:07:29;;;;;;;16.83;2.97;;;10.90;99.90;;;;;;4995837;28;20149;-89
2022/03/19 11:10:08;;;;;;;13.23;2.15;;;11.20;99.90;;;;;;4994838;28;20127;-88
2022/03/19 11:12:35;;;;;;;13.18;2.65;;;10.30;99.90;;;;;;4995146;28;20081;-89
2022/03/19 11:15:04;;;;;;;9.98;2.35;;;10.40;99.90;;;;;;4995637;28;20049;-89
2022/03/19 11:17:45;;;;;;;8.20;1.75;;;10.40;99.90;;;;;;4994398;28;20049;-88
2022/03/19 11:20:27;;;;;;;10.73;1.88;;;10.90;99.90;;;;;;4995124;28;20045;-88
2022/03/19 11:22:55;;;;;;;8.75;1.90;;;11.50;99.90;;;;;;4995766;28;20045;-89
2022/03/19 11:25:44;;;;;;;10.23;1.83;;;10.70;99.90;;;;;;4995718;28;20049;-90
2022/03/19 11:28:13;;;;;;;5.38;1.48;;;11.50;99.90;;;;;;4995737;28;20060;-91
2022/03/19 11:30:41;;;;;;;6.80;1.67;;;11.30;99.90;;;;;;4989253;28;20049;-92
2022/03/19 11:33:19;;;;;;;8.05;1.92;;;10.70;99.90;;;;;;4997261;28;20053;-87
2022/03/19 11:36:01;;;;;;;12.05;2.15;;;10.80;99.90;;;;;;4982827;28;20050;-89
2022/03/19 11:38:29;;;;;;;6.53;1.67;;;10.90;99.90;;;;;;4996769;28;20045;-90
2022/03/19 11:40:56;;;;;;;5.28;1.88;;;11.00;99.90;;;;;;4993461;28;20075;-90
2022/03/19 11:43:26;;;;;;;7.53;1.42;;;11.10;99.90;;;;;;4996892;28;20049;-90
2022/03/19 11:45:54;;;;;;;7.53;1.70;;;11.20;99.90;;;;;;4997100;28;20551;-89
2022/03/19 11:48:36;;;;;;;5.97;1.50;;;11.40;99.90;;;;;;4996600;28;20409;-90
2022/03/19 11:51:17;;;;;;;7.65;1.42;;;11.60;99.90;;;;;;4996890;28;20056;-90
2022/03/19 11:53:51;;;;;;;9.40;1.23;;;11.20;99.90;;;;;;4994287;28;20099;-89
2022/03/19 11:56:19;;;;;;;5.25;1.05;;;11.30;99.90;;;;;;4980512;28;20077;-90
2022/03/19 11:58:46;;;;;;;7.57;1.35;;;11.30;99.90;;;;;;4987456;28;20081;-90
2022/03/19 12:01:13;;;;;;;2.88;1.02;;;11.60;99.90;;;;;;4984912;28;20508;-89
2022/03/19 12:04:04;;;;;;;6.13;1.52;;;11.30;99.90;;;;;;4999961;28;20120;-88
2022/03/19 12:06:33;;;;;;;11.15;1.33;;;11.30;99.80;;;;;;4996402;28;20050;-89
2022/03/19 12:08:59;;;;;;;3.65;0.95;;;11.40;99.90;;;;;;4984700;28;20046;-89
2022/03/19 12:11:25;;;;;;;4.00;1.10;;;11.40;99.90;;;;;;4999422;28;20124;-89
2022/03/19 12:13:51;;;;;;;5.43;1.10;;;11.40;99.90;;;;;;4998132;28;20120;-89
2022/03/19 12:16:43;;;;;;;7.45;1.33;;;11.70;99.90;;;;;;4999910;28;20048;-88
2022/03/19 12:19:10;;;;;;;6.35;1.20;;;11.40;94.60;;;;;;4986953;28;20195;-89
2022/03/19 12:21:40;;;;;;;5.45;1.25;;;11.40;99.90;;;;;;4997650;28;20049;-87
2022/03/19 12:24:06;;;;;;;6.78;1.27;;;11.40;99.90;;;;;;5012277;28;20048;-85
2022/03/19 12:26:44;;;;;;;5.30;0.95;;;11.40;99.90;;;;;;4983977;28;20045;-86
2022/03/19 12:29:12;;;;;;;7.00;1.27;;;11.50;99.90;;;;;;4984508;28;20029;-86
2022/03/19 12:31:47;;;;;;;12.32;1.50;;;11.50;99.90;;;;;;5014399;28;20518;-87
2022/03/19 12:34:16;;;;;;;5.65;1.25;;;11.60;99.90;;;;;;4997170;28;20469;-85
2022/03/19 12:36:54;;;;;;;6.45;1.83;;;11.70;99.90;;;;;;5013956;28;20400;-87
2022/03/19 12:39:21;;;;;;;4.78;1.40;;;12.00;98.90;;;;;;4998013;28;20041;-88
2022/03/19 12:41:50;;;;;;;8.45;1.80;;;11.70;98.70;;;;;;4998490;28;20042;-87
2022/03/19 12:44:25;;;;;;;8.50;1.63;;;11.70;97.60;;;;;;4998070;28;20084;-87
2022/03/19 12:47:02;;;;;;;5.22;1.13;;;11.70;98.60;;;;;;5014641;28;20076;-86
2022/03/19 12:49:29;;;;;;;7.00;1.50;;;11.80;98.30;;;;;;4997681;28;20049;-88
2022/03/19 12:51:56;;;;;;;8.50;1.48;;;11.80;97.60;;;;;;5012320;28;20058;-87
2022/03/19 12:54:24;;;;;;;5.80;1.50;;;11.80;97.20;;;;;;4996992;28;20042;-89
2022/03/19 12:56:52;;;;;;;9.20;1.70;;;11.70;97.50;;;;;;4992005;28;20045;-87
2022/03/19 12:59:19;;;;;;;6.47;1.65;;;11.70;98.10;;;;;;5012861;28;20050;-87
2022/03/19 13:01:46;;;;;;;7.10;1.30;;;12.40;97.50;;;;;;5008333;28;20037;-87
2022/03/19 13:04:19;;;;;;;8.48;1.40;;;11.70;97.60;;;;;;4991585;28;20121;-87
2022/03/19 13:06:45;;;;;;;6.60;1.60;;;11.70;97.50;;;;;;5002178;28;20072;-84
2022/03/19 13:09:11;;;;;;;5.38;1.50;;;11.60;97.40;;;;;;5010914;28;20481;-84
2022/03/19 13:11:45;;;;;;;5.95;1.48;;;11.60;98.20;;;;;;4992851;28;20049;-87